メインページ
METAR-TAF:

METAR-TAF

空港 :

リオブランコ, アクレ州, ブラジル

緯度: 10-00S, 経度: 067-48W, 海抜: 142m

現時点の気象観測

当レポートは58分前の17:00(UTC)に作成
北西の風 6kt
気温 30°C
湿度 70%
気圧 1014 hPa
視程10km以上
高度2000ftの雲は散在している
高度10000ftの雲は散在している

METAR: SBRB 111700Z 31006KT 9999 SCT020 SCT100 30/24 Q1014

時間: 12:58 (17:58 UTC)

予報

当レポートは1時間58分前の16:00(UTC)に作成
予報は11日の 18時(UTC)から 12日の 18時(UTC)まで有効
の風 7kt
視程10km以上
高度2500ftの千切れ雲あり
高度3000ftの雲はほとんどない, 塔状積雲.
11日の 19時(UTC)から 11日の 21時(UTC)まで徐々に
視程: 8000m
高度2500ftの雲は散在している
高度3000ftの雲はほとんどない, 積乱雲.
激しい雷雨, 雨
11日の 22時(UTC)から 11日の 24時(UTC)まで徐々に
の風 3kt
12日の 07時(UTC)から 12日の 09時(UTC)まで徐々に
の風 kt
視程10km以上
高度400ftの雲は散在している
12日の 11時(UTC)から 12日の 13時(UTC)まで徐々に
の風 5kt
高度1000ftの千切れ雲あり

TAF: SBRB 111600Z 1118/1218 35007KT 9999 BKN025 FEW030TCU TX31/1118Z T N22/1209Z BECMG 1119/1121 8000 TSRA SCT025 FEW030CB BECMG 1122/1124 36003KT FE W015 BECMG 1207/1209 00000KT 9999 SCT004 BECMG 1211/1213 35005KT BKN010 B

4,000以上の空港の気象観測と天気予報(METAR報とTAF報)

利用可能な観測所は地図上に黄色い丸と赤い丸で示す。

丸の上にカーソルを重ねると観測所名を参照できる。

次にクリックすると気象観測と天気予報を参照できる。

マップの切り替え:黒色「×」印の緑ボタンをクリックして拡大、「-」印の緑ボタンをクリックして縮小、緑色の三角印をクリックして隣りの地図に切り替え


METAR-TAF: